Time;durP1;ratioP1;P1;durP2;ratioP2;P2;SDS_P1;SDS_P2;PMS_P1;PMS_P2;Temp;Humidity;BMP_temperature;BMP_pressure;BME280_temperature;BME280_humidity;BME280_pressure;Samples;Min_cycle;Max_cycle;Signal;HPM_P1;HPM_P2
2022/06/25 00:00:27;;;;;;;;;;;17.90;99.90;;;;;;5046271;28;20415;-57
2022/06/25 00:02:53;;;;;;;;;;;17.90;99.90;;;;;;5048975;28;19916;-59
2022/06/25 00:05:27;;;;;;;;;;;17.90;99.90;;;;;;5053703;28;19916;-57
2022/06/25 00:07:54;;;;;;;;;;;17.90;99.90;;;;;;5048771;28;19931;-59
2022/06/25 00:10:19;;;;;;;;;;;17.90;99.90;;;;;;5049569;28;20007;-57
2022/06/25 00:12:45;;;;;;;;;;;17.90;99.90;;;;;;5050328;28;19991;-57
2022/06/25 00:15:11;;;;;;;;;;;17.90;99.90;;;;;;5028683;28;19920;-57
2022/06/25 00:17:36;;;;;;;;;;;17.80;99.90;;;;;;5045504;28;20390;-59
2022/06/25 00:20:03;;;;;;;;;;;17.80;99.90;;;;;;5032469;28;19969;-58
2022/06/25 00:22:28;;;;;;;;;;;17.80;99.90;;;;;;5052445;28;19970;-57
2022/06/25 00:24:54;;;;;;;;;;;17.80;99.90;;;;;;5047803;28;19916;-58
2022/06/25 00:27:19;;;;;;;;;;;17.80;99.90;;;;;;5046590;28;19927;-58
2022/06/25 00:29:45;;;;;;;;;;;17.80;99.90;;;;;;5040344;28;19920;-57
2022/06/25 00:32:11;;;;;;;;;;;17.80;99.90;;;;;;5053024;28;19917;-58
2022/06/25 00:34:37;;;;;;;;;;;17.80;99.90;;;;;;5054091;28;19966;-59
2022/06/25 00:37:02;;;;;;;;;;;17.80;99.90;;;;;;5055261;28;19921;-58
2022/06/25 00:39:28;;;;;;;;;;;17.80;99.90;;;;;;5047190;28;19924;-58
2022/06/25 00:41:54;;;;;;;;;;;17.80;99.90;;;;;;5041412;28;19952;-58
2022/06/25 00:44:19;;;;;;;;;;;17.80;99.90;;;;;;5047574;28;20374;-57
2022/06/25 00:46:46;;;;;;;;;;;17.80;99.90;;;;;;5044185;28;20297;-58
2022/06/25 00:49:11;;;;;;;;;;;17.80;99.90;;;;;;5027559;28;20351;-58
2022/06/25 00:51:37;;;;;;;;;;;17.80;99.90;;;;;;5045569;28;19927;-57
2022/06/25 00:54:04;;;;;;;;;;;17.80;99.90;;;;;;5045285;28;19970;-58
2022/06/25 00:56:31;;;;;;;;;;;17.70;99.90;;;;;;5044029;28;19927;-59
2022/06/25 00:58:58;;;;;;;;;;;17.70;99.90;;;;;;5045153;28;20021;-58
2022/06/25 01:01:24;;;;;;;;;;;17.80;99.90;;;;;;5040314;28;19955;-57
2022/06/25 01:03:49;;;;;;;;;;;17.70;99.90;;;;;;5038492;28;19939;-58
2022/06/25 01:06:15;;;;;;;;;;;17.70;99.90;;;;;;5055758;28;20007;-56
2022/06/25 01:08:42;;;;;;;;;;;17.70;99.90;;;;;;5050924;28;20505;-57
2022/06/25 01:11:10;;;;;;;;;;;17.70;99.90;;;;;;5035790;28;19925;-58
2022/06/25 01:13:36;;;;;;;;;;;17.70;99.90;;;;;;5042041;28;20236;-57
2022/06/25 01:16:01;;;;;;;;;;;17.60;99.90;;;;;;5042229;28;19978;-58
2022/06/25 01:18:27;;;;;;;;;;;17.60;99.90;;;;;;5039498;28;19935;-57
2022/06/25 01:20:53;;;;;;;;;;;17.60;99.90;;;;;;5037939;28;19920;-57
2022/06/25 01:23:18;;;;;;;;;;;17.60;99.90;;;;;;5047995;28;19916;-58
2022/06/25 01:25:45;;;;;;;;;;;17.60;99.90;;;;;;5044104;28;20019;-57
2022/06/25 01:28:10;;;;;;;;;;;17.60;99.90;;;;;;5038036;28;19920;-57
2022/06/25 01:30:37;;;;;;;;;;;17.60;99.90;;;;;;5046188;28;20298;-58
2022/06/25 01:33:05;;;;;;;;;;;17.60;99.90;;;;;;5052377;28;20383;-55
2022/06/25 01:35:31;;;;;;;;;;;17.60;99.90;;;;;;5057292;28;19959;-57
2022/06/25 01:37:56;;;;;;;;;;;17.60;99.90;;;;;;5054596;28;20211;-58
2022/06/25 01:40:22;;;;;;;;;;;17.60;99.90;;;;;;5047489;28;19932;-54
2022/06/25 01:43:00;;;;;;;;;;;17.60;99.90;;;;;;5056277;28;19928;-57
2022/06/25 01:45:27;;;;;;;;;;;17.60;99.90;;;;;;5055603;28;20527;-57
2022/06/25 01:47:52;;;;;;;;;;;17.60;99.90;;;;;;5047407;28;19932;-54
2022/06/25 01:50:19;;;;;;;;;;;17.60;99.90;;;;;;5035708;28;19923;-57
2022/06/25 01:52:46;;;;;;;;;;;17.60;99.90;;;;;;5049636;28;19917;-55
2022/06/25 01:55:12;;;;;;;;;;;17.60;99.90;;;;;;5053388;28;19916;-55
2022/06/25 01:57:38;;;;;;;;;;;17.60;99.90;;;;;;5052302;28;19989;-57
2022/06/25 02:00:05;;;;;;;;;;;17.60;99.90;;;;;;5050125;28;19923;-59
2022/06/25 02:02:31;;;;;;;;;;;17.60;99.90;;;;;;5046632;28;20117;-56
2022/06/25 02:04:57;;;;;;;;;;;17.60;99.90;;;;;;5052026;28;20143;-56
2022/06/25 02:07:22;;;;;;;;;;;17.60;99.90;;;;;;5055816;28;20486;-54
2022/06/25 02:09:48;;;;;;;;;;;17.60;99.90;;;;;;5046080;28;19916;-57
2022/06/25 02:12:13;;;;;;;;;;;17.60;99.90;;;;;;5061075;28;19988;-56
2022/06/25 02:14:39;;;;;;;;;;;17.60;99.90;;;;;;5048301;28;19928;-54
2022/06/25 02:17:05;;;;;;;;;;;17.60;99.90;;;;;;5050692;28;19925;-56
2022/06/25 02:19:30;;;;;;;;;;;17.50;99.90;;;;;;5055920;28;19928;-58
2022/06/25 02:21:56;;;;;;;;;;;17.50;99.90;;;;;;5060416;28;19916;-57
2022/06/25 02:24:22;;;;;;;;;;;17.50;99.90;;;;;;5050147;28;19925;-58
2022/06/25 02:26:47;;;;;;;;;;;17.50;99.90;;;;;;5058055;28;20003;-58
2022/06/25 02:29:13;;;;;;;;;;;17.50;99.90;;;;;;5049585;28;20689;-57
2022/06/25 02:31:39;;;;;;;;;;;17.50;99.90;;;;;;5054991;28;19916;-56
2022/06/25 02:34:04;;;;;;;;;;;17.50;99.90;;;;;;5036681;28;19996;-57
2022/06/25 02:36:30;;;;;;;;;;;17.40;99.90;;;;;;5055815;28;20386;-56
2022/06/25 02:38:55;;;;;;;;;;;17.40;99.90;;;;;;5051799;28;20034;-52
2022/06/25 02:41:21;;;;;;;;;;;17.40;99.90;;;;;;5060316;28;19916;-56
2022/06/25 02:43:46;;;;;;;;;;;17.40;99.90;;;;;;5049995;28;19924;-56
2022/06/25 02:46:12;;;;;;;;;;;17.40;99.90;;;;;;5056163;28;19929;-55
2022/06/25 02:48:38;;;;;;;;;;;17.40;99.90;;;;;;5041586;28;20398;-56
2022/06/25 02:51:03;;;;;;;;;;;17.40;99.90;;;;;;5055907;28;19916;-57
2022/06/25 02:53:29;;;;;;;;;;;17.40;99.90;;;;;;5043849;28;19916;-55
2022/06/25 02:58:54;;;;;;;;;;;17.40;99.90;;;;;;5039850;28;19981;-56
2022/06/25 03:01:20;;;;;;;;;;;17.40;99.90;;;;;;5046353;28;19916;-55
2022/06/25 03:03:46;;;;;;;;;;;17.40;99.90;;;;;;5053301;28;20206;-57
2022/06/25 03:06:11;;;;;;;;;;;17.40;99.90;;;;;;5050322;28;20329;-56
2022/06/25 03:08:37;;;;;;;;;;;17.30;99.90;;;;;;5051925;28;19927;-57
2022/06/25 03:11:02;;;;;;;;;;;17.30;99.90;;;;;;5052118;28;20510;-54
2022/06/25 03:13:31;;;;;;;;;;;17.30;99.90;;;;;;5055199;28;20319;-56
2022/06/25 03:15:57;;;;;;;;;;;17.30;99.90;;;;;;5052402;28;20286;-53
2022/06/25 03:18:22;;;;;;;;;;;17.30;99.90;;;;;;5058467;28;19923;-56
2022/06/25 03:20:50;;;;;;;;;;;17.20;99.90;;;;;;5048510;28;19920;-54
2022/06/25 03:23:16;;;;;;;;;;;17.20;99.90;;;;;;5051950;28;20011;-55
2022/06/25 03:25:41;;;;;;;;;;;17.20;99.90;;;;;;5051830;28;20361;-57
2022/06/25 03:28:07;;;;;;;;;;;17.20;99.90;;;;;;5051155;28;19935;-57
2022/06/25 03:30:33;;;;;;;;;;;17.20;99.90;;;;;;5050447;28;19924;-57
2022/06/25 03:32:59;;;;;;;;;;;17.20;99.90;;;;;;5032873;28;20019;-56
2022/06/25 03:35:24;;;;;;;;;;;17.20;99.90;;;;;;5048714;28;20376;-56
2022/06/25 03:37:50;;;;;;;;;;;17.20;99.90;;;;;;5061589;28;19977;-57
2022/06/25 03:40:17;;;;;;;;;;;17.20;99.90;;;;;;5054128;28;20399;-57
2022/06/25 03:42:43;;;;;;;;;;;17.20;99.90;;;;;;5053118;28;19946;-58
2022/06/25 03:45:09;;;;;;;;;;;17.20;99.90;;;;;;5042784;28;20035;-57
2022/06/25 03:47:34;;;;;;;;;;;17.20;99.90;;;;;;5055595;28;20030;-56
2022/06/25 03:50:00;;;;;;;;;;;17.10;99.90;;;;;;5052247;28;20284;-56
2022/06/25 03:52:25;;;;;;;;;;;17.20;99.90;;;;;;5054132;28;19927;-56
2022/06/25 03:54:51;;;;;;;;;;;17.10;99.90;;;;;;5048658;28;19923;-55
2022/06/25 03:57:17;;;;;;;;;;;17.10;99.90;;;;;;5057776;28;20292;-55
2022/06/25 03:59:42;;;;;;;;;;;17.10;99.90;;;;;;5050697;28;19985;-55
2022/06/25 04:02:08;;;;;;;;;;;17.10;99.90;;;;;;5041546;28;19916;-57
2022/06/25 04:04:33;;;;;;;;;;;17.10;99.90;;;;;;5052384;28;20435;-56
2022/06/25 04:06:59;;;;;;;;;;;17.10;99.90;;;;;;5052322;28;19921;-56
2022/06/25 04:09:24;;;;;;;;;;;17.10;99.90;;;;;;5034300;28;19917;-56
2022/06/25 04:11:50;;;;;;;;;;;17.10;99.90;;;;;;5037261;28;19923;-57
2022/06/25 04:14:16;;;;;;;;;;;17.20;99.90;;;;;;5048101;28;20251;-57
2022/06/25 04:16:41;;;;;;;;;;;17.20;99.90;;;;;;5053363;28;20374;-57
2022/06/25 04:19:07;;;;;;;;;;;17.20;99.90;;;;;;5045560;22;20463;-54
2022/06/25 04:21:32;;;;;;;;;;;17.20;99.90;;;;;;5038172;28;19916;-55
2022/06/25 04:23:58;;;;;;;;;;;17.20;99.90;;;;;;5035581;28;19971;-55
2022/06/25 04:26:24;;;;;;;;;;;17.30;99.90;;;;;;5031570;28;20015;-52
2022/06/25 04:29:04;;;;;;;;;;;17.30;99.90;;;;;;4997941;28;19925;-54
2022/06/25 04:31:31;;;;;;;;;;;17.30;99.90;;;;;;5035702;28;19924;-52
2022/06/25 04:33:57;;;;;;;;;;;17.40;99.90;;;;;;5026757;28;19960;-55
2022/06/25 04:36:23;;;;;;;;;;;17.40;99.90;;;;;;5026572;28;19959;-52
2022/06/25 04:38:49;;;;;;;;;;;17.40;99.90;;;;;;5032391;28;19968;-54
2022/06/25 04:41:15;;;;;;;;;;;17.40;99.90;;;;;;5044779;28;19916;-53
2022/06/25 04:43:40;;;;;;;;;;;17.50;99.90;;;;;;5026426;28;19936;-56
2022/06/25 04:46:06;;;;;;;;;;;17.50;99.90;;;;;;5026733;28;19921;-55
2022/06/25 04:48:31;;;;;;;;;;;17.50;99.90;;;;;;5023011;28;20337;-53
2022/06/25 04:50:57;;;;;;;;;;;17.60;99.90;;;;;;5037622;28;19939;-54
2022/06/25 04:53:22;;;;;;;;;;;17.60;99.90;;;;;;5034413;28;20409;-54
2022/06/25 04:55:48;;;;;;;;;;;17.70;99.90;;;;;;5025940;28;19963;-53
2022/06/25 04:58:14;;;;;;;;;;;17.70;99.90;;;;;;5015041;28;19929;-54
2022/06/25 05:00:40;;;;;;;;;;;17.70;99.90;;;;;;5032848;28;20510;-58
2022/06/25 05:03:09;;;;;;;;;;;17.80;99.90;;;;;;5020173;28;19917;-54
2022/06/25 05:05:35;;;;;;;;;;;17.80;99.90;;;;;;5025196;28;19928;-55
2022/06/25 05:08:01;;;;;;;;;;;17.90;99.90;;;;;;5021197;28;20011;-54
2022/06/25 05:10:26;;;;;;;;;;;17.90;99.90;;;;;;5019746;28;19917;-52
2022/06/25 05:15:37;;;;;;;;;;;18.00;99.90;;;;;;5030358;28;19974;-53
2022/06/25 05:18:03;;;;;;;;;;;18.00;99.90;;;;;;5031649;28;19983;-54
2022/06/25 05:20:29;;;;;;;;;;;18.10;99.90;;;;;;5033177;28;19917;-54
2022/06/25 05:22:55;;;;;;;;;;;18.10;99.90;;;;;;5031340;28;20047;-55
2022/06/25 05:25:20;;;;;;;;;;;18.20;99.90;;;;;;5016878;28;20586;-57
2022/06/25 05:27:46;;;;;;;;;;;18.20;99.90;;;;;;5024684;28;19925;-57
2022/06/25 05:30:12;;;;;;;;;;;18.30;99.90;;;;;;5028760;28;19921;-55
2022/06/25 05:32:37;;;;;;;;;;;18.40;99.90;;;;;;5006302;28;19920;-53
2022/06/25 05:35:04;;;;;;;;;;;18.50;99.90;;;;;;5034436;28;19916;-53
2022/06/25 05:37:29;;;;;;;;;;;18.50;99.90;;;;;;5033993;28;20455;-54
2022/06/25 05:39:55;;;;;;;;;;;18.60;99.90;;;;;;5036363;28;20410;-52
2022/06/25 05:42:20;;;;;;;;;;;18.70;99.90;;;;;;5018893;28;19972;-55
2022/06/25 05:44:47;;;;;;;;;;;18.80;99.90;;;;;;5031288;28;19928;-55
2022/06/25 05:47:12;;;;;;;;;;;18.80;99.90;;;;;;5035955;28;19924;-54
2022/06/25 05:49:38;;;;;;;;;;;18.90;99.90;;;;;;5018189;28;20447;-53
2022/06/25 05:52:04;;;;;;;;;;;19.00;99.90;;;;;;5034812;28;20008;-53
2022/06/25 05:54:30;;;;;;;;;;;19.10;99.90;;;;;;5041491;28;19999;-55
2022/06/25 05:56:56;;;;;;;;;;;19.10;99.90;;;;;;5034732;28;20016;-56
2022/06/25 05:59:21;;;;;;;;;;;19.10;99.90;;;;;;5034427;28;19942;-53
2022/06/25 06:01:47;;;;;;;;;;;19.20;99.90;;;;;;5030253;28;19924;-54
2022/06/25 06:04:12;;;;;;;;;;;19.30;99.90;;;;;;5033731;28;20344;-54
2022/06/25 06:06:38;;;;;;;;;;;19.40;99.90;;;;;;5016427;28;19917;-55
2022/06/25 06:09:04;;;;;;;;;;;19.50;99.90;;;;;;5043624;28;20072;-56
2022/06/25 06:11:29;;;;;;;;;;;19.50;99.90;;;;;;5033506;28;20015;-58
2022/06/25 06:13:55;;;;;;;;;;;19.60;99.90;;;;;;5028964;28;19917;-55
2022/06/25 06:16:20;;;;;;;;;;;19.70;99.90;;;;;;5030456;28;19921;-54
2022/06/25 06:18:46;;;;;;;;;;;19.80;99.90;;;;;;5034244;28;19921;-56
2022/06/25 06:21:12;;;;;;;;;;;19.80;99.90;;;;;;5059852;28;20302;-55
2022/06/25 06:23:37;;;;;;;;;;;19.80;99.90;;;;;;5037614;28;19924;-53
2022/06/25 06:26:03;;;;;;;;;;;19.80;99.90;;;;;;5034290;28;19921;-56
2022/06/25 06:28:28;;;;;;;;;;;19.90;99.90;;;;;;5029961;28;19971;-58
2022/06/25 06:30:54;;;;;;;;;;;19.90;99.90;;;;;;5035293;28;19931;-56
2022/06/25 06:33:20;;;;;;;;;;;20.00;99.90;;;;;;5029214;28;19944;-55
2022/06/25 06:35:45;;;;;;;;;;;20.10;99.90;;;;;;5040176;28;19917;-56
2022/06/25 06:38:11;;;;;;;;;;;20.20;99.90;;;;;;5013594;28;20314;-57
2022/06/25 06:40:37;;;;;;;;;;;20.30;99.90;;;;;;5042616;28;19925;-56
2022/06/25 06:43:03;;;;;;;;;;;20.40;99.90;;;;;;5030729;28;20291;-56
2022/06/25 06:45:29;;;;;;;;;;;20.50;99.90;;;;;;5019268;28;19967;-56
2022/06/25 06:47:54;;;;;;;;;;;20.60;99.90;;;;;;5036217;28;19960;-55
2022/06/25 06:50:20;;;;;;;;;;;20.70;99.90;;;;;;5033177;28;19917;-54
2022/06/25 06:52:45;;;;;;;;;;;20.80;99.90;;;;;;5013051;28;20008;-53
2022/06/25 06:55:11;;;;;;;;;;;20.90;99.90;;;;;;5022805;28;19936;-55
2022/06/25 06:57:37;;;;;;;;;;;20.90;99.90;;;;;;5026023;28;20299;-54
2022/06/25 07:00:04;;;;;;;;;;;21.00;99.90;;;;;;5022096;28;19917;-58
2022/06/25 07:02:30;;;;;;;;;;;21.10;99.90;;;;;;5035834;28;19959;-53
2022/06/25 07:04:56;;;;;;;;;;;21.20;99.90;;;;;;5037465;28;20183;-54
2022/06/25 07:07:21;;;;;;;;;;;21.30;99.90;;;;;;5038086;28;19920;-55
2022/06/25 07:09:47;;;;;;;;;;;21.30;99.90;;;;;;5034708;28;19943;-54
2022/06/25 07:12:12;;;;;;;;;;;21.40;99.90;;;;;;5044538;28;20044;-55
2022/06/25 07:14:38;;;;;;;;;;;21.40;99.90;;;;;;5043188;28;19933;-57
2022/06/25 07:17:03;;;;;;;;;;;21.50;99.90;;;;;;5056843;28;19917;-54
2022/06/25 07:19:29;;;;;;;;;;;21.50;99.90;;;;;;5026948;28;20362;-57
2022/06/25 07:21:55;;;;;;;;;;;21.40;99.90;;;;;;5041985;28;19920;-56
2022/06/25 07:24:21;;;;;;;;;;;21.50;99.90;;;;;;5046937;28;19920;-55
2022/06/25 07:26:47;;;;;;;;;;;21.60;99.90;;;;;;5045166;28;19916;-54
2022/06/25 07:29:12;;;;;;;;;;;21.60;99.90;;;;;;5046635;28;19928;-57
2022/06/25 07:31:38;;;;;;;;;;;21.60;99.90;;;;;;5033045;28;20364;-57
2022/06/25 07:34:04;;;;;;;;;;;21.60;99.90;;;;;;5047719;28;19964;-55
2022/06/25 07:36:30;;;;;;;;;;;21.60;99.90;;;;;;5040394;28;20431;-55
2022/06/25 07:38:55;;;;;;;;;;;21.60;99.90;;;;;;5039332;28;19964;-55
2022/06/25 07:41:21;;;;;;;;;;;21.70;99.90;;;;;;5042561;28;19917;-53
2022/06/25 07:43:47;;;;;;;;;;;21.80;99.90;;;;;;5036383;28;20186;-55
2022/06/25 07:46:12;;;;;;;;;;;21.90;99.90;;;;;;5039878;28;19931;-57
2022/06/25 07:48:38;;;;;;;;;;;21.90;99.90;;;;;;5039592;28;19920;-55
2022/06/25 07:53:48;;;;;;;;;;;21.90;99.90;;;;;;5046100;28;20363;-55
2022/06/25 07:56:14;;;;;;;;;;;21.80;99.90;;;;;;5037109;28;19935;-54
2022/06/25 07:58:39;;;;;;;;;;;21.70;99.90;;;;;;5043936;28;19917;-56
2022/06/25 08:01:05;;;;;;;;;;;21.50;99.90;;;;;;5038651;28;19923;-55
2022/06/25 08:03:31;;;;;;;;;;;21.40;99.90;;;;;;5044117;28;19963;-55
2022/06/25 08:05:57;;;;;;;;;;;21.30;99.90;;;;;;5045445;28;20074;-55
2022/06/25 08:08:23;;;;;;;;;;;21.40;99.90;;;;;;5044789;28;20450;-55
2022/06/25 08:10:48;;;;;;;;;;;21.60;99.90;;;;;;5031737;28;19924;-55
2022/06/25 08:13:14;;;;;;;;;;;21.80;99.90;;;;;;5050530;28;19916;-57
2022/06/25 08:15:40;;;;;;;;;;;22.00;99.90;;;;;;5033238;28;19916;-54
2022/06/25 08:18:05;;;;;;;;;;;22.10;99.90;;;;;;5039093;28;20446;-57
2022/06/25 08:20:31;;;;;;;;;;;22.30;99.90;;;;;;5043129;28;19999;-52
2022/06/25 08:22:56;;;;;;;;;;;22.40;99.90;;;;;;5039880;28;19916;-55
2022/06/25 08:25:22;;;;;;;;;;;22.40;99.90;;;;;;5035310;28;19936;-52
2022/06/25 08:27:49;;;;;;;;;;;22.50;99.90;;;;;;5043926;28;20051;-57
2022/06/25 08:30:16;;;;;;;;;;;22.70;99.90;;;;;;5039966;28;19924;-57
2022/06/25 08:32:41;;;;;;;;;;;22.80;99.90;;;;;;5039110;28;19916;-55
2022/06/25 08:35:07;;;;;;;;;;;23.00;99.90;;;;;;5042421;28;19923;-54
2022/06/25 08:37:51;;;;;;;;;;;23.10;99.90;;;;;;5034786;28;19939;-56
2022/06/25 08:40:17;;;;;;;;;;;23.10;99.90;;;;;;5034492;28;19927;-58
2022/06/25 08:42:43;;;;;;;;;;;23.10;99.90;;;;;;5036745;28;19917;-55
2022/06/25 08:45:09;;;;;;;;;;;23.10;99.90;;;;;;5021977;28;19928;-54
2022/06/25 08:47:43;;;;;;;;;;;23.10;99.90;;;;;;5017264;28;20066;-54
2022/06/25 08:50:11;;;;;;;;;;;22.90;99.90;;;;;;5022153;28;19979;-57
2022/06/25 08:52:37;;;;;;;;;;;23.00;99.90;;;;;;5030975;28;19939;-58
2022/06/25 08:55:03;;;;;;;;;;;23.10;99.90;;;;;;5025460;28;20505;-55
2022/06/25 08:57:29;;;;;;;;;;;23.30;99.90;;;;;;5018497;28;19999;-57
2022/06/25 08:59:55;;;;;;;;;;;23.40;99.90;;;;;;5032823;28;19921;-57
2022/06/25 09:02:21;;;;;;;;;;;23.40;99.90;;;;;;5028182;28;19923;-57
2022/06/25 09:04:46;;;;;;;;;;;23.30;99.90;;;;;;5031443;28;19931;-54
2022/06/25 09:07:17;;;;;;;;;;;23.20;99.90;;;;;;5031447;28;19948;-55
2022/06/25 09:09:47;;;;;;;;;;;23.20;99.90;;;;;;5037730;28;20007;-54
2022/06/25 09:12:13;;;;;;;;;;;23.30;99.90;;;;;;5037747;28;19921;-55
2022/06/25 09:14:39;;;;;;;;;;;23.50;99.90;;;;;;5035631;28;20081;-56
2022/06/25 09:17:08;;;;;;;;;;;23.60;99.90;;;;;;5017355;28;19927;-56
2022/06/25 09:19:35;;;;;;;;;;;23.70;99.90;;;;;;5035304;28;19921;-56
2022/06/25 09:22:03;;;;;;;;;;;23.90;99.90;;;;;;5030384;28;20176;-56
2022/06/25 09:24:47;;;;;;;;;;;24.10;99.90;;;;;;5033183;28;19921;-55
2022/06/25 09:27:13;;;;;;;;;;;24.10;99.90;;;;;;5034459;28;19920;-57
2022/06/25 09:29:40;;;;;;;;;;;24.20;99.90;;;;;;5033386;28;19917;-57
2022/06/25 09:32:06;;;;;;;;;;;24.10;99.90;;;;;;5037823;28;19923;-59
2022/06/25 09:34:33;;;;;;;;;;;24.10;99.90;;;;;;5037295;28;20331;-56
2022/06/25 09:37:14;;;;;;;;;;;24.10;99.90;;;;;;5039544;28;19940;-57
2022/06/25 09:39:40;;;;;;;;;;;24.10;99.90;;;;;;5036024;28;19917;-55
2022/06/25 09:42:18;;;;;;;;;;;24.20;99.90;;;;;;5024673;28;20143;-56
2022/06/25 09:44:43;;;;;;;;;;;24.10;99.90;;;;;;5035804;28;20015;-56
2022/06/25 09:47:09;;;;;;;;;;;24.00;99.90;;;;;;5038181;28;20980;-55
2022/06/25 09:49:34;;;;;;;;;;;24.00;99.90;;;;;;5029165;28;20403;-58
2022/06/25 09:52:01;;;;;;;;;;;24.20;99.90;;;;;;5032598;28;19917;-56
2022/06/25 09:54:26;;;;;;;;;;;24.20;99.90;;;;;;5032591;28;20309;-57
2022/06/25 09:56:52;;;;;;;;;;;24.20;99.90;;;;;;5020684;28;19920;-60
2022/06/25 09:59:18;;;;;;;;;;;24.20;99.90;;;;;;5033472;28;20817;-55
2022/06/25 10:01:44;;;;;;;;;;;24.40;99.90;;;;;;5044320;28;19923;-56
2022/06/25 10:04:10;;;;;;;;;;;24.40;99.90;;;;;;5032500;28;19924;-57
2022/06/25 10:06:38;;;;;;;;;;;24.60;99.90;;;;;;5019497;28;19927;-57
2022/06/25 10:09:04;;;;;;;;;;;24.50;99.90;;;;;;5031299;28;20315;-57
2022/06/25 10:11:31;;;;;;;;;;;24.60;99.90;;;;;;5036763;28;19924;-59
2022/06/25 10:13:57;;;;;;;;;;;24.70;99.90;;;;;;5021607;28;19917;-55
2022/06/25 10:16:23;;;;;;;;;;;24.80;99.90;;;;;;5032865;28;20477;-55
2022/06/25 10:18:49;;;;;;;;;;;24.90;99.70;;;;;;5031651;28;19924;-53
2022/06/25 10:21:15;;;;;;;;;;;24.90;99.50;;;;;;5035244;22;19920;-57
2022/06/25 10:23:41;;;;;;;;;;;25.00;99.80;;;;;;5013024;28;19936;-59
2022/06/25 10:26:08;;;;;;;;;;;25.10;99.90;;;;;;5017897;28;20064;-54
2022/06/25 10:28:35;;;;;;;;;;;25.20;99.90;;;;;;5019869;28;20325;-55
2022/06/25 10:31:04;;;;;;;;;;;25.30;99.90;;;;;;5021172;28;19917;-57
2022/06/25 10:33:35;;;;;;;;;;;25.20;99.40;;;;;;5019675;28;19925;-59
2022/06/25 10:36:04;;;;;;;;;;;25.30;99.80;;;;;;5016060;28;19936;-59
2022/06/25 10:38:30;;;;;;;;;;;25.20;99.20;;;;;;5024690;28;19925;-55
2022/06/25 10:42:58;;;;;;;;;;;25.30;99.40;;;;;;5012035;28;19917;-54
2022/06/25 10:43:47;;;;;;;;;;;25.10;98.90;;;;;;5015258;28;20135;-56
2022/06/25 10:46:19;;;;;;;;;;;24.90;99.30;;;;;;5013163;28;20168;-58
2022/06/25 10:48:52;;;;;;;;;;;24.60;99.10;;;;;;5011819;28;19918;-59
2022/06/25 10:51:41;;;;;;;;;;;24.50;99.80;;;;;;5020178;28;20320;-57
2022/06/25 10:54:11;;;;;;;;;;;24.40;99.90;;;;;;4997651;28;19917;-54
2022/06/25 10:56:46;;;;;;;;;;;24.20;99.90;;;;;;5007878;28;20014;-57
2022/06/25 10:59:34;;;;;;;;;;;24.10;99.90;;;;;;5021663;28;20092;-57
2022/06/25 11:02:01;;;;;;;;;;;24.00;99.90;;;;;;5012518;28;19924;-55
2022/06/25 11:04:28;;;;;;;;;;;23.90;99.90;;;;;;5027877;28;19932;-56
2022/06/25 11:07:06;;;;;;;;;;;23.80;99.90;;;;;;5009769;28;20219;-57
2022/06/25 11:09:32;;;;;;;;;;;23.80;99.90;;;;;;5023504;28;19936;-57
2022/06/25 11:11:58;;;;;;;;;;;23.60;99.90;;;;;;5022396;28;19917;-54
2022/06/25 11:14:24;;;;;;;;;;;23.30;99.90;;;;;;5013671;28;19957;-53
2022/06/25 11:16:51;;;;;;;;;;;23.00;99.90;;;;;;5015372;28;20351;-58
2022/06/25 11:19:17;;;;;;;;;;;22.70;99.90;;;;;;5019447;28;19917;-59
2022/06/25 11:21:43;;;;;;;;;;;22.40;99.90;;;;;;5009185;28;19963;-60
2022/06/25 11:24:11;;;;;;;;;;;22.10;99.90;;;;;;5011950;28;20284;-57
2022/06/25 11:29:27;;;;;;;;;;;21.60;99.90;;;;;;5021145;28;20367;-58
2022/06/25 11:31:53;;;;;;;;;;;21.50;99.90;;;;;;5016740;28;19927;-56
2022/06/25 11:34:19;;;;;;;;;;;21.30;99.90;;;;;;5019739;28;19924;-58
2022/06/25 11:36:53;;;;;;;;;;;21.50;99.90;;;;;;5020176;28;19917;-58
2022/06/25 11:39:19;;;;;;;;;;;21.50;99.90;;;;;;5015849;28;19917;-57
2022/06/25 11:41:48;;;;;;;;;;;21.60;99.90;;;;;;5003853;28;19925;-58
2022/06/25 11:44:13;;;;;;;;;;;21.90;99.90;;;;;;5019402;28;20342;-57
2022/06/25 11:46:39;;;;;;;;;;;22.10;99.90;;;;;;5008245;28;19979;-56
2022/06/25 11:49:05;;;;;;;;;;;22.30;99.90;;;;;;5019818;28;19917;-52
2022/06/25 11:51:31;;;;;;;;;;;22.20;99.90;;;;;;5021667;28;19917;-55
2022/06/25 11:54:02;;;;;;;;;;;22.20;99.90;;;;;;5020387;28;19971;-58
2022/06/25 11:56:28;;;;;;;;;;;22.30;99.90;;;;;;5001852;28;20375;-52
2022/06/25 11:58:54;;;;;;;;;;;22.50;99.90;;;;;;5017839;28;19960;-59
2022/06/25 12:01:26;;;;;;;;;;;22.70;99.90;;;;;;5003304;28;19917;-57
2022/06/25 12:03:52;;;;;;;;;;;22.90;99.90;;;;;;5014637;28;19923;-57
2022/06/25 12:06:17;;;;;;;;;;;23.00;99.90;;;;;;5003865;28;20004;-53
2022/06/25 12:08:43;;;;;;;;;;;23.00;99.90;;;;;;5017513;28;19925;-54
2022/06/25 12:11:09;;;;;;;;;;;22.70;99.90;;;;;;5020876;28;19921;-55
2022/06/25 12:13:34;;;;;;;;;;;22.70;99.90;;;;;;5018014;28;19940;-59
2022/06/25 12:16:01;;;;;;;;;;;22.60;99.90;;;;;;5029583;28;19941;-58
2022/06/25 12:18:37;;;;;;;;;;;22.20;99.90;;;;;;5009066;28;19956;-53
2022/06/25 12:21:04;;;;;;;;;;;22.00;99.90;;;;;;5016840;28;19921;-55
2022/06/25 12:23:30;;;;;;;;;;;21.60;99.90;;;;;;5010185;28;19917;-56
2022/06/25 12:25:56;;;;;;;;;;;21.60;99.90;;;;;;5015027;28;19974;-59
2022/06/25 12:28:35;;;;;;;;;;;21.50;99.90;;;;;;5002947;28;20284;-56
2022/06/25 12:31:10;;;;;;;;;;;21.50;99.90;;;;;;5010796;28;19968;-59
2022/06/25 12:33:36;;;;;;;;;;;21.50;99.90;;;;;;5008382;28;19976;-54
2022/06/25 12:36:14;;;;;;;;;;;21.70;99.90;;;;;;5019519;28;20001;-56
2022/06/25 12:38:39;;;;;;;;;;;21.90;99.90;;;;;;5013892;28;19999;-55
2022/06/25 12:41:05;;;;;;;;;;;21.80;99.90;;;;;;5023220;28;20299;-57
2022/06/25 12:43:42;;;;;;;;;;;22.00;99.90;;;;;;5019334;28;19921;-54
2022/06/25 12:46:08;;;;;;;;;;;22.30;99.90;;;;;;5011805;28;20307;-58
2022/06/25 12:48:33;;;;;;;;;;;22.70;99.90;;;;;;4999548;28;20327;-58
2022/06/25 12:51:09;;;;;;;;;;;22.80;99.90;;;;;;5016031;28;20559;-55
2022/06/25 12:53:35;;;;;;;;;;;23.00;99.90;;;;;;5013022;28;19917;-57
2022/06/25 12:56:01;;;;;;;;;;;23.20;99.90;;;;;;4997489;28;19917;-59
2022/06/25 12:58:32;;;;;;;;;;;23.40;99.90;;;;;;5013323;28;19917;-57
2022/06/25 13:00:58;;;;;;;;;;;23.40;99.90;;;;;;5019721;28;19917;-60
2022/06/25 13:03:23;;;;;;;;;;;23.20;99.90;;;;;;4979257;28;20292;-59
2022/06/25 13:05:49;;;;;;;;;;;23.20;99.90;;;;;;5005992;28;19964;-57
2022/06/25 13:08:14;;;;;;;;;;;23.20;99.90;;;;;;5003668;28;20351;-57
2022/06/25 13:10:42;;;;;;;;;;;23.20;99.90;;;;;;5012815;28;19924;-57
2022/06/25 13:13:08;;;;;;;;;;;23.30;99.90;;;;;;5006670;28;19917;-57
2022/06/25 13:15:35;;;;;;;;;;;23.40;99.90;;;;;;5003877;28;19924;-59
2022/06/25 13:18:01;;;;;;;;;;;23.40;99.90;;;;;;5002713;28;20043;-59
2022/06/25 13:20:27;;;;;;;;;;;23.50;99.90;;;;;;5000683;28;19928;-57
2022/06/25 13:22:52;;;;;;;;;;;23.40;99.90;;;;;;5010221;28;20284;-58
2022/06/25 13:25:18;;;;;;;;;;;23.60;99.90;;;;;;5013314;28;20253;-56
2022/06/25 13:27:46;;;;;;;;;;;24.00;99.90;;;;;;5017733;28;19917;-57
2022/06/25 13:30:11;;;;;;;;;;;24.20;99.90;;;;;;4997120;28;20014;-60
2022/06/25 13:32:37;;;;;;;;;;;24.40;99.90;;;;;;5013254;28;19975;-57
2022/06/25 13:35:05;;;;;;;;;;;24.30;99.90;;;;;;5015770;28;20449;-56
2022/06/25 13:37:34;;;;;;;;;;;24.00;99.90;;;;;;5014890;28;20072;-56
2022/06/25 13:40:00;;;;;;;;;;;23.80;99.90;;;;;;5019606;28;19917;-58
2022/06/25 13:42:25;;;;;;;;;;;23.40;99.90;;;;;;5019472;28;19917;-58
2022/06/25 13:44:51;;;;;;;;;;;23.30;99.90;;;;;;5018710;28;19921;-60
2022/06/25 13:47:17;;;;;;;;;;;23.20;99.90;;;;;;5020619;28;19925;-58
2022/06/25 13:49:42;;;;;;;;;;;23.00;99.90;;;;;;4996486;28;19920;-57
2022/06/25 13:52:08;;;;;;;;;;;23.00;99.90;;;;;;5011071;28;19927;-57
2022/06/25 13:54:33;;;;;;;;;;;22.90;99.90;;;;;;4995088;28;19983;-57
2022/06/25 13:56:59;;;;;;;;;;;22.80;99.90;;;;;;5015622;28;20266;-57
2022/06/25 13:59:25;;;;;;;;;;;22.80;99.90;;;;;;4996001;28;19972;-57
2022/06/25 14:01:50;;;;;;;;;;;22.70;99.90;;;;;;5007218;28;20193;-59
2022/06/25 14:04:16;;;;;;;;;;;22.50;99.90;;;;;;5015149;28;19917;-60
2022/06/25 14:06:42;;;;;;;;;;;22.50;99.90;;;;;;5012013;28;20001;-57
2022/06/25 14:09:11;;;;;;;;;;;22.40;99.90;;;;;;5015798;28;20062;-60
2022/06/25 14:11:37;;;;;;;;;;;22.40;99.90;;;;;;4998976;28;19918;-58
2022/06/25 14:14:03;;;;;;;;;;;22.40;99.90;;;;;;5011602;28;19925;-60
2022/06/25 14:16:29;;;;;;;;;;;22.50;99.90;;;;;;5027257;28;19924;-56
2022/06/25 14:18:55;;;;;;;;;;;22.40;99.90;;;;;;5024706;28;19917;-57
2022/06/25 14:21:21;;;;;;;;;;;22.20;99.90;;;;;;5022446;28;19928;-55
2022/06/25 14:23:47;;;;;;;;;;;22.10;99.90;;;;;;5019604;28;20055;-57